createdAt,value
2024-02-07T00:01:04.007Z,8.68
2024-02-07T00:06:06.178Z,9.50
2024-02-07T00:11:08.420Z,9.27
2024-02-07T00:16:11.826Z,9.25
2024-02-07T00:21:14.190Z,8.73
2024-02-07T00:26:16.384Z,7.65
2024-02-07T00:31:18.653Z,7.72
2024-02-07T00:36:21.061Z,8.68
2024-02-07T00:41:24.958Z,7.22
2024-02-07T00:46:27.162Z,6.63
2024-02-07T00:51:29.290Z,7.70
2024-02-07T00:56:31.981Z,8.38
2024-02-07T01:01:34.285Z,8.88
2024-02-07T01:06:36.667Z,6.60
2024-02-07T01:11:38.816Z,7.53
2024-02-07T01:16:41.960Z,7.38
2024-02-07T01:21:44.178Z,8.57
2024-02-07T01:26:46.284Z,7.45
2024-02-07T01:31:48.721Z,8.57
2024-02-07T01:36:51.019Z,6.82
2024-02-07T01:42:02.741Z,7.13
2024-02-07T01:47:15.670Z,6.38
2024-02-07T01:52:20.543Z,7.20
2024-02-07T01:57:22.828Z,8.88
2024-02-07T02:02:26.978Z,9.02
2024-02-07T02:07:29.133Z,7.38
2024-02-07T02:12:31.829Z,11.80
2024-02-07T02:17:34.289Z,9.45
2024-02-07T02:22:48.158Z,9.10
2024-02-07T02:28:04.068Z,10.75
2024-02-07T02:33:11.039Z,9.38
2024-02-07T02:38:16.709Z,7.20
2024-02-07T02:43:20.817Z,8.00
2024-02-07T02:48:23.145Z,8.45
2024-02-07T02:53:25.987Z,8.85
2024-02-07T02:58:36.873Z,10.32
2024-02-07T03:03:55.442Z,7.88
2024-02-07T03:09:09.531Z,9.52
2024-02-07T03:14:12.394Z,8.70
2024-02-07T03:19:14.669Z,9.07
2024-02-07T03:24:16.839Z,9.98
2024-02-07T03:29:19.208Z,7.70
2024-02-07T03:34:22.119Z,8.30
2024-02-07T03:39:24.493Z,7.95
2024-02-07T03:44:27.113Z,7.80
2024-02-07T03:49:29.313Z,6.82
2024-02-07T03:54:31.280Z,7.43
2024-02-07T03:59:33.253Z,9.43
2024-02-07T04:04:36.405Z,7.97
2024-02-07T04:09:38.420Z,7.85
2024-02-07T04:14:44.122Z,6.95
2024-02-07T04:20:05.284Z,5.97
2024-02-07T04:25:26.254Z,4.72
2024-02-07T04:30:46.935Z,4.53
2024-02-07T04:36:07.477Z,3.92
2024-02-07T04:41:28.373Z,3.38
2024-02-07T04:46:49.014Z,3.30
2024-02-07T04:52:09.799Z,4.10
2024-02-07T04:57:30.387Z,3.05
2024-02-07T05:02:50.988Z,3.40
2024-02-07T05:08:11.499Z,3.28
2024-02-07T05:13:32.158Z,3.35
2024-02-07T05:18:35.774Z,2.60
2024-02-07T05:23:37.915Z,2.47
2024-02-07T05:28:41.272Z,2.47
2024-02-07T05:33:43.900Z,1.90
2024-02-07T05:38:46.379Z,1.63
2024-02-07T05:43:48.403Z,1.42
2024-02-07T05:48:51.005Z,2.17
2024-02-07T05:53:58.950Z,2.13
2024-02-07T05:59:02.846Z,1.95
2024-02-07T06:04:07.516Z,2.30
2024-02-07T06:09:09.961Z,1.90
2024-02-07T06:14:12.933Z,1.70
2024-02-07T06:19:19.258Z,1.55
2024-02-07T06:24:21.435Z,1.20
2024-02-07T06:29:23.437Z,0.88
2024-02-07T06:34:25.753Z,0.90
2024-02-07T06:39:28.178Z,0.60
2024-02-07T06:44:30.452Z,0.68
2024-02-07T06:49:37.555Z,0.98
2024-02-07T06:54:39.613Z,1.20
2024-02-07T06:59:42.017Z,0.98
2024-02-07T07:04:44.270Z,1.02
2024-02-07T07:09:46.427Z,1.60
2024-02-07T07:14:48.500Z,1.27
2024-02-07T07:19:50.686Z,0.75
2024-02-07T07:24:52.837Z,1.10
2024-02-07T07:29:54.943Z,0.98
2024-02-07T07:34:57.154Z,0.98
2024-02-07T07:39:59.237Z,0.90
2024-02-07T07:45:01.346Z,1.20
2024-02-07T07:50:04.230Z,1.48
2024-02-07T07:55:06.567Z,1.45
2024-02-07T08:00:10.854Z,1.45
2024-02-07T08:05:15.733Z,1.10
2024-02-07T08:10:17.864Z,1.10
2024-02-07T08:15:20.213Z,1.02
2024-02-07T08:20:25.845Z,0.60
2024-02-07T08:25:27.998Z,0.60
2024-02-07T08:30:30.056Z,0.40
2024-02-07T08:35:32.654Z,0.35
2024-02-07T08:40:35.116Z,0.50
2024-02-07T08:45:39.513Z,0.85
2024-02-07T08:50:41.882Z,0.40
2024-02-07T08:55:44.487Z,0.50
2024-02-07T09:00:46.750Z,0.70
2024-02-07T09:05:49.013Z,0.55
2024-02-07T09:10:51.186Z,1.15
2024-02-07T09:15:55.470Z,0.55
2024-02-07T09:20:59.295Z,0.40
2024-02-07T09:26:01.632Z,2.28
2024-02-07T09:31:04.103Z,0.70
2024-02-07T09:36:06.274Z,0.60
2024-02-07T09:41:09.447Z,0.80
2024-02-07T09:46:11.930Z,0.77
2024-02-07T09:51:16.603Z,0.75
2024-02-07T09:56:18.978Z,0.57
2024-02-07T10:01:21.721Z,0.85
2024-02-07T10:06:25.683Z,2.42
2024-02-07T10:11:28.933Z,1.75
2024-02-07T10:16:31.575Z,2.42
2024-02-07T10:21:35.541Z,1.50
2024-02-07T10:26:37.838Z,1.92
2024-02-07T10:31:39.793Z,1.13
2024-02-07T10:36:41.944Z,0.80
2024-02-07T10:41:43.959Z,1.05
2024-02-07T10:46:45.997Z,0.70
2024-02-07T10:51:47.876Z,1.02
2024-02-07T10:56:50.820Z,1.35
2024-02-07T11:01:53.027Z,1.05
2024-02-07T11:06:55.093Z,0.95
2024-02-07T11:11:57.093Z,1.17
2024-02-07T11:16:59.152Z,1.73
2024-02-07T11:22:01.934Z,1.40
2024-02-07T11:27:04.799Z,1.00
2024-02-07T11:32:06.854Z,2.15
2024-02-07T11:37:12.833Z,3.78
2024-02-07T11:42:19.526Z,1.80
2024-02-07T11:47:28.658Z,0.98
2024-02-07T11:52:32.354Z,4.70
2024-02-07T11:57:35.203Z,2.00
2024-02-07T12:02:37.695Z,1.55
2024-02-07T12:07:41.831Z,2.45
2024-02-07T12:12:44.617Z,0.95
2024-02-07T12:17:47.400Z,1.23
2024-02-07T12:22:49.394Z,0.57
2024-02-07T12:27:51.306Z,3.03
2024-02-07T12:32:53.556Z,0.90
2024-02-07T12:37:59.703Z,1.27
2024-02-07T12:43:02.088Z,1.50
2024-02-07T12:48:04.668Z,1.40
2024-02-07T12:53:06.609Z,2.20
2024-02-07T12:58:08.526Z,1.30
2024-02-07T13:03:11.180Z,2.00
2024-02-07T13:08:13.768Z,2.45
2024-02-07T13:13:15.924Z,1.40
2024-02-07T13:18:17.927Z,1.80
2024-02-07T13:23:22.835Z,1.85
2024-02-07T13:28:24.780Z,1.90
2024-02-07T13:33:26.819Z,2.40
2024-02-07T13:38:34.342Z,2.05
2024-02-07T13:43:39.698Z,1.00
2024-02-07T13:48:41.877Z,2.20
2024-02-07T13:53:44.026Z,1.40
2024-02-07T13:58:45.962Z,1.35
2024-02-07T14:03:47.956Z,1.08
2024-02-07T14:08:49.938Z,0.90
2024-02-07T14:13:52.100Z,2.45
2024-02-07T14:18:54.042Z,0.70
2024-02-07T14:23:55.989Z,0.88
2024-02-07T14:28:57.980Z,0.40
2024-02-07T14:33:59.959Z,0.45
2024-02-07T14:39:01.896Z,0.93
2024-02-07T14:44:03.959Z,0.85
2024-02-07T14:49:06.203Z,0.80
2024-02-07T14:54:09.091Z,1.70
2024-02-07T14:59:16.600Z,1.40
2024-02-07T15:04:21.757Z,2.33
2024-02-07T15:09:24.951Z,1.95
2024-02-07T15:14:26.872Z,4.05
2024-02-07T15:19:28.852Z,1.50
2024-02-07T15:24:30.801Z,1.20
2024-02-07T15:29:32.683Z,2.13
2024-02-07T15:34:34.659Z,1.08
2024-02-07T15:39:37.920Z,1.00
2024-02-07T15:44:41.178Z,2.25
2024-02-07T15:49:44.325Z,1.90
2024-02-07T15:54:46.272Z,2.63
2024-02-07T15:59:48.363Z,2.75
2024-02-07T16:04:55.789Z,4.13
2024-02-07T16:09:58.059Z,3.08
2024-02-07T16:15:00.011Z,5.00
2024-02-07T16:20:03.468Z,1.60
2024-02-07T16:25:05.922Z,2.40
2024-02-07T16:30:10.650Z,1.80
2024-02-07T16:35:14.357Z,1.92
2024-02-07T16:40:16.522Z,3.90
2024-02-07T16:45:18.556Z,4.35
2024-02-07T16:50:20.709Z,3.22
2024-02-07T16:55:22.706Z,4.45
2024-02-07T17:00:24.933Z,4.00
2024-02-07T17:05:27.113Z,2.88
2024-02-07T17:10:29.120Z,2.25
2024-02-07T17:15:31.097Z,2.60
2024-02-07T17:20:46.253Z,2.28
2024-02-07T17:25:48.651Z,2.60
2024-02-07T17:30:51.065Z,3.13
2024-02-07T17:35:55.176Z,4.75
2024-02-07T17:40:57.763Z,5.35
2024-02-07T17:46:01.293Z,3.45
2024-02-07T17:51:05.295Z,4.15
2024-02-07T17:56:08.399Z,3.85
2024-02-07T18:01:10.893Z,3.50
2024-02-07T18:06:13.170Z,2.67
2024-02-07T18:11:28.381Z,3.42
2024-02-07T18:16:30.862Z,4.32
2024-02-07T18:21:33.248Z,7.30
2024-02-07T18:26:37.422Z,6.40
2024-02-07T18:31:39.550Z,5.95
2024-02-07T18:36:41.822Z,7.25
2024-02-07T18:41:50.985Z,7.70
2024-02-07T18:46:53.213Z,6.60
2024-02-07T18:51:55.685Z,5.88
2024-02-07T18:56:58.569Z,6.60
2024-02-07T19:02:07.997Z,13.52
2024-02-07T19:07:10.603Z,12.27
2024-02-07T19:12:12.814Z,8.10
2024-02-07T19:17:14.953Z,8.18
2024-02-07T19:22:17.062Z,4.82
2024-02-07T19:27:19.365Z,5.68
2024-02-07T19:32:21.386Z,3.17
2024-02-07T19:37:25.181Z,5.45
2024-02-07T19:42:27.407Z,3.00
2024-02-07T19:47:29.583Z,3.20
2024-02-07T19:52:32.028Z,2.40
2024-02-07T19:57:34.129Z,4.43
2024-02-07T20:02:36.672Z,6.30
2024-02-07T20:07:38.922Z,9.90
2024-02-07T20:12:40.972Z,7.35
2024-02-07T20:17:45.255Z,7.50
2024-02-07T20:22:47.866Z,8.70
2024-02-07T20:27:50.216Z,8.75
2024-02-07T20:32:52.795Z,16.90
2024-02-07T20:37:54.964Z,6.35
2024-02-07T20:42:58.223Z,3.83
2024-02-07T20:48:00.423Z,7.75
2024-02-07T20:53:03.478Z,5.70
2024-02-07T20:58:05.574Z,5.18
2024-02-07T21:03:08.012Z,5.10
2024-02-07T21:08:11.057Z,7.38
2024-02-07T21:13:13.814Z,4.88
2024-02-07T21:18:16.154Z,7.63
2024-02-07T21:23:18.944Z,5.57
2024-02-07T21:28:21.026Z,9.57
2024-02-07T21:33:23.428Z,2.75
2024-02-07T21:38:25.673Z,1.73
2024-02-07T21:43:27.773Z,7.45
2024-02-07T21:48:30.206Z,5.45
2024-02-07T21:53:33.589Z,3.50
2024-02-07T21:58:35.694Z,5.60
2024-02-07T22:03:38.127Z,3.78
2024-02-07T22:08:42.149Z,3.88
2024-02-07T22:13:44.710Z,3.45
2024-02-07T22:18:47.659Z,0.70
2024-02-07T22:23:50.077Z,0.90
2024-02-07T22:28:52.553Z,1.00
2024-02-07T22:33:55.043Z,1.15
2024-02-07T22:38:57.385Z,0.88
2024-02-07T22:43:59.623Z,0.30
2024-02-07T22:49:01.863Z,0.20
2024-02-07T22:54:04.183Z,0.38
2024-02-07T22:59:06.590Z,0.60
2024-02-07T23:04:09.600Z,0.20
2024-02-07T23:09:11.783Z,0.28
2024-02-07T23:14:13.988Z,0.10
2024-02-07T23:19:16.415Z,0.40
2024-02-07T23:24:18.578Z,1.30
2024-02-07T23:29:20.605Z,2.28
2024-02-07T23:34:22.990Z,5.15
2024-02-07T23:39:25.292Z,6.68
2024-02-07T23:44:27.422Z,8.68
2024-02-07T23:49:29.663Z,13.48
2024-02-07T23:54:31.959Z,10.57
2024-02-07T23:59:34.006Z,12.68
